Time;durP1;ratioP1;P1;durP2;ratioP2;P2;SDS_P1;SDS_P2;PMS_P1;PMS_P2;Temp;Humidity;BMP_temperature;BMP_pressure;BME280_temperature;BME280_humidity;BME280_pressure;Samples;Min_cycle;Max_cycle;Signal;HPM_P1;HPM_P2
2024/04/08 00:00:23;;;;;;;6.60;2.10;;;14.10;99.90;;;;;;5034204;28;20029;-51
2024/04/08 00:02:50;;;;;;;5.95;1.98;;;14.10;99.90;;;;;;5034715;28;20036;-48
2024/04/08 00:05:19;;;;;;;6.28;2.00;;;14.10;99.90;;;;;;5034174;28;20542;-47
2024/04/08 00:07:46;;;;;;;8.45;2.25;;;14.10;99.90;;;;;;5034051;28;20033;-50
2024/04/08 00:10:11;;;;;;;8.80;2.00;;;14.10;99.90;;;;;;5034035;28;20037;-50
2024/04/08 00:12:44;;;;;;;6.88;2.17;;;14.10;99.90;;;;;;5034181;28;20033;-48
2024/04/08 00:15:11;;;;;;;6.93;2.03;;;14.10;99.90;;;;;;5034055;28;20390;-48
2024/04/08 00:17:40;;;;;;;6.88;2.22;;;14.10;99.90;;;;;;5033706;28;20040;-51
2024/04/08 00:20:06;;;;;;;7.97;1.85;;;14.10;99.90;;;;;;5033897;28;20033;-51
2024/04/08 00:22:31;;;;;;;5.13;2.17;;;14.10;99.90;;;;;;5033889;28;20116;-47
2024/04/08 00:24:57;;;;;;;6.22;2.03;;;14.10;99.90;;;;;;5033892;28;20142;-49
2024/04/08 00:27:23;;;;;;;6.28;2.35;;;14.00;99.90;;;;;;5033030;28;20029;-49
2024/04/08 00:29:49;;;;;;;7.95;2.30;;;14.00;99.90;;;;;;5033668;28;20026;-50
2024/04/08 00:32:14;;;;;;;7.07;2.17;;;14.00;99.90;;;;;;5033697;28;20033;-50
2024/04/08 00:34:40;;;;;;;6.68;2.40;;;14.00;99.90;;;;;;5033684;28;20478;-48
2024/04/08 00:37:07;;;;;;;5.32;1.92;;;14.00;99.90;;;;;;5032284;28;20506;-49
2024/04/08 00:39:33;;;;;;;8.90;3.10;;;14.00;99.90;;;;;;5033566;28;20048;-50
2024/04/08 00:42:00;;;;;;;8.63;2.65;;;14.00;99.90;;;;;;5033388;28;20048;-49
2024/04/08 00:44:26;;;;;;;5.47;2.67;;;13.90;99.90;;;;;;5033578;28;20496;-48
2024/04/08 00:46:52;;;;;;;8.05;2.80;;;13.90;99.90;;;;;;5031857;28;20406;-50
2024/04/08 00:49:19;;;;;;;7.20;2.40;;;13.80;99.90;;;;;;5033522;28;20124;-49
2024/04/08 00:51:45;;;;;;;7.85;2.90;;;13.80;99.90;;;;;;5033266;28;20037;-51
2024/04/08 00:54:11;;;;;;;8.68;2.67;;;13.80;99.90;;;;;;5033212;28;20478;-49
2024/04/08 00:56:38;;;;;;;7.82;2.80;;;13.80;99.90;;;;;;5033007;28;20036;-48
2024/04/08 00:59:06;;;;;;;8.05;2.88;;;13.80;99.90;;;;;;5033206;28;20030;-50
2024/04/08 01:01:33;;;;;;;5.05;2.33;;;13.80;99.90;;;;;;5032967;28;20037;-50
2024/04/08 01:03:58;;;;;;;9.63;2.85;;;14.00;99.90;;;;;;5033174;28;20021;-50
2024/04/08 01:06:24;;;;;;;5.57;2.53;;;14.00;99.90;;;;;;5032852;28;20475;-48
2024/04/08 01:08:50;;;;;;;7.63;3.15;;;14.00;99.90;;;;;;5032889;28;20026;-50
2024/04/08 01:11:16;;;;;;;9.00;3.35;;;13.90;99.90;;;;;;5032785;28;20072;-49
2024/04/08 01:13:42;;;;;;;7.60;2.78;;;13.90;99.90;;;;;;5032964;28;20037;-49
2024/04/08 01:16:08;;;;;;;7.28;2.90;;;13.90;99.90;;;;;;5031600;28;20052;-50
2024/04/08 01:18:33;;;;;;;6.53;3.08;;;13.90;99.90;;;;;;5032643;28;20037;-50
2024/04/08 01:21:00;;;;;;;9.30;2.97;;;13.80;99.90;;;;;;5032682;28;20489;-51
2024/04/08 01:23:28;;;;;;;8.05;3.05;;;13.80;99.90;;;;;;5033070;28;20034;-48
2024/04/08 01:25:54;;;;;;;8.32;3.88;;;13.80;99.90;;;;;;5032731;28;20025;-50
2024/04/08 01:28:20;;;;;;;7.50;3.30;;;13.80;99.90;;;;;;5032979;28;20481;-47
2024/04/08 01:30:49;;;;;;;11.10;2.90;;;13.80;99.90;;;;;;5032491;28;20037;-50
2024/04/08 01:33:15;;;;;;;10.73;3.35;;;13.80;99.90;;;;;;5032611;28;20037;-49
2024/04/08 01:35:41;;;;;;;9.70;3.22;;;13.80;99.90;;;;;;5032505;28;20112;-51
2024/04/08 01:38:07;;;;;;;8.75;3.35;;;13.80;99.90;;;;;;5032255;28;20112;-50
2024/04/08 01:40:32;;;;;;;5.82;2.70;;;13.80;99.90;;;;;;5032139;28;20065;-50
2024/04/08 01:42:58;;;;;;;5.80;2.88;;;13.70;99.90;;;;;;5031176;28;20033;-48
2024/04/08 01:45:23;;;;;;;10.05;3.30;;;13.70;99.90;;;;;;5032223;28;20030;-51
2024/04/08 01:47:49;;;;;;;10.93;3.15;;;13.70;99.90;;;;;;5032079;28;20113;-51
2024/04/08 01:50:14;;;;;;;8.18;3.08;;;13.70;99.90;;;;;;5032494;28;20026;-50
2024/04/08 01:52:40;;;;;;;9.80;2.83;;;13.70;99.90;;;;;;5032231;28;20128;-51
2024/04/08 01:55:07;;;;;;;8.77;3.08;;;13.70;99.90;;;;;;5031006;28;20048;-46
2024/04/08 01:57:32;;;;;;;6.47;2.38;;;13.70;99.90;;;;;;5032476;28;20493;-49
2024/04/08 01:59:58;;;;;;;7.47;2.55;;;13.70;99.90;;;;;;5031992;28;20029;-50
2024/04/08 02:02:24;;;;;;;6.43;2.55;;;13.70;99.90;;;;;;5032041;28;20091;-51
2024/04/08 02:04:50;;;;;;;6.45;2.20;;;13.60;99.90;;;;;;5032427;28;20026;-49
2024/04/08 02:07:16;;;;;;;8.45;2.40;;;13.60;99.90;;;;;;5031911;28;20025;-51
2024/04/08 02:09:42;;;;;;;6.15;2.15;;;13.60;99.90;;;;;;5031974;28;20025;-50
2024/04/08 02:12:07;;;;;;;6.63;2.58;;;13.60;99.90;;;;;;5031953;28;20045;-48
2024/04/08 02:14:33;;;;;;;8.52;2.92;;;13.60;99.90;;;;;;5031873;28;20092;-48
2024/04/08 02:16:58;;;;;;;9.45;2.42;;;13.60;99.90;;;;;;5031808;28;20099;-50
2024/04/08 02:19:25;;;;;;;7.50;2.78;;;13.60;99.90;;;;;;5031853;28;20398;-49
2024/04/08 02:21:50;;;;;;;7.05;2.50;;;13.60;99.90;;;;;;5030530;28;20040;-50
2024/04/08 02:24:16;;;;;;;7.97;3.58;;;13.60;99.90;;;;;;5031829;28;20026;-50
2024/04/08 02:26:42;;;;;;;8.90;2.80;;;13.60;99.90;;;;;;5031650;28;20121;-49
2024/04/08 02:29:07;;;;;;;12.63;3.42;;;13.60;99.90;;;;;;5031838;28;20083;-49
2024/04/08 02:31:33;;;;;;;7.03;2.80;;;13.60;99.90;;;;;;5031700;28;20083;-48
2024/04/08 02:33:58;;;;;;;8.27;2.75;;;13.60;99.90;;;;;;5031749;28;20106;-46
2024/04/08 02:36:24;;;;;;;6.30;2.60;;;13.50;99.90;;;;;;5031466;28;20029;-49
2024/04/08 02:38:50;;;;;;;6.90;3.00;;;13.50;99.90;;;;;;5030472;28;20069;-49
2024/04/08 02:41:15;;;;;;;7.18;2.60;;;13.40;99.90;;;;;;5031514;28;20034;-51
2024/04/08 02:43:41;;;;;;;6.15;2.40;;;13.40;99.90;;;;;;5031657;28;20022;-49
2024/04/08 02:46:06;;;;;;;8.75;3.10;;;13.40;99.90;;;;;;5031785;28;20704;-51
2024/04/08 02:48:32;;;;;;;6.43;2.67;;;13.30;99.90;;;;;;5031520;28;20095;-50
2024/04/08 02:50:58;;;;;;;5.22;2.53;;;13.30;99.90;;;;;;5032340;28;20406;-51
2024/04/08 02:53:24;;;;;;;7.22;2.60;;;13.30;99.90;;;;;;5035730;28;20057;-50
2024/04/08 02:56:04;;;;;;;6.45;2.75;;;13.30;99.90;;;;;;5036191;28;20037;-50
2024/04/08 02:58:30;;;;;;;7.38;2.47;;;13.20;99.90;;;;;;5035422;28;20037;-49
2024/04/08 03:00:56;;;;;;;8.35;2.90;;;13.20;99.90;;;;;;5035532;28;20040;-51
2024/04/08 03:03:22;;;;;;;6.10;3.15;;;13.20;99.90;;;;;;5035488;28;20030;-50
2024/04/08 03:05:47;;;;;;;7.30;3.03;;;13.20;99.90;;;;;;5035378;28;20120;-51
2024/04/08 03:08:13;;;;;;;10.65;2.92;;;13.20;99.90;;;;;;5035056;28;20025;-49
2024/04/08 03:10:39;;;;;;;9.07;3.35;;;13.10;99.90;;;;;;5033829;28;20123;-47
2024/04/08 03:13:04;;;;;;;7.40;2.90;;;13.20;99.90;;;;;;5035300;28;20029;-48
2024/04/08 03:15:30;;;;;;;6.50;2.72;;;13.10;99.90;;;;;;5035207;28;20037;-51
2024/04/08 03:17:55;;;;;;;7.07;3.30;;;13.10;99.90;;;;;;5035016;28;20029;-51
2024/04/08 03:20:21;;;;;;;8.30;3.10;;;13.10;99.90;;;;;;5034807;28;20033;-51
2024/04/08 03:22:47;;;;;;;7.32;3.05;;;13.20;99.90;;;;;;5035079;28;20112;-49
2024/04/08 03:25:12;;;;;;;5.03;2.78;;;13.20;99.90;;;;;;5034998;28;20459;-50
2024/04/08 03:27:40;;;;;;;9.85;4.20;;;13.20;99.90;;;;;;5034762;28;20025;-50
2024/04/08 03:30:06;;;;;;;8.55;3.17;;;13.10;99.90;;;;;;5034883;28;20029;-48
2024/04/08 03:32:32;;;;;;;8.90;3.53;;;13.10;99.90;;;;;;5034962;28;20033;-50
2024/04/08 03:34:57;;;;;;;10.57;3.72;;;13.10;99.90;;;;;;5034859;28;20034;-51
2024/04/08 03:37:26;;;;;;;6.47;3.38;;;13.10;99.90;;;;;;5034604;28;20075;-50
2024/04/08 03:39:52;;;;;;;8.35;3.40;;;13.10;99.90;;;;;;5034592;28;20040;-50
2024/04/08 03:42:19;;;;;;;10.00;4.30;;;13.10;99.90;;;;;;5034693;28;20032;-51
2024/04/08 03:44:48;;;;;;;8.40;3.78;;;13.10;99.90;;;;;;5034722;28;20022;-50
2024/04/08 03:47:14;;;;;;;8.05;3.78;;;13.20;99.90;;;;;;5034317;28;20435;-49
2024/04/08 03:49:40;;;;;;;9.18;4.43;;;13.10;99.90;;;;;;5034442;28;20181;-46
2024/04/08 03:52:06;;;;;;;9.23;4.30;;;13.10;99.90;;;;;;5034601;28;20041;-50
2024/04/08 03:54:32;;;;;;;10.82;4.75;;;13.10;99.90;;;;;;5034375;28;20033;-48
2024/04/08 03:56:59;;;;;;;9.90;4.93;;;13.10;99.90;;;;;;5034306;28;20036;-47
2024/04/08 03:59:25;;;;;;;9.73;4.85;;;13.10;99.90;;;;;;5034349;28;20037;-48
2024/04/08 04:01:51;;;;;;;9.32;5.45;;;13.00;99.90;;;;;;5033799;28;20026;-48
2024/04/08 04:04:16;;;;;;;13.43;5.47;;;13.00;99.90;;;;;;5032102;28;20116;-49
2024/04/08 04:06:42;;;;;;;10.10;5.22;;;13.00;99.90;;;;;;5034119;28;20470;-50
2024/04/08 04:09:10;;;;;;;12.55;5.53;;;13.20;99.90;;;;;;5033110;28;20087;-50
2024/04/08 04:11:36;;;;;;;11.75;4.90;;;13.20;99.90;;;;;;5034160;28;20246;-51
2024/04/08 04:14:02;;;;;;;10.50;6.25;;;13.10;99.90;;;;;;5034123;28;20041;-47
2024/04/08 04:16:28;;;;;;;13.45;5.82;;;13.10;99.90;;;;;;5034169;28;20053;-51
2024/04/08 04:18:54;;;;;;;12.07;6.88;;;13.10;99.90;;;;;;5033980;28;20449;-47
2024/04/08 04:21:19;;;;;;;16.45;7.00;;;13.10;99.90;;;;;;5033835;28;20037;-47
2024/04/08 04:23:45;;;;;;;13.23;6.25;;;13.10;99.90;;;;;;5033895;28;20029;-48
2024/04/08 04:26:10;;;;;;;12.55;7.70;;;13.10;99.90;;;;;;5033644;28;20079;-48
2024/04/08 04:28:36;;;;;;;14.70;7.15;;;13.10;99.90;;;;;;5033794;28;20036;-49
2024/04/08 04:31:02;;;;;;;12.40;7.10;;;13.10;99.90;;;;;;5033703;28;20069;-50
2024/04/08 04:33:28;;;;;;;14.25;6.78;;;13.10;99.90;;;;;;5033708;28;20042;-46
2024/04/08 04:35:58;;;;;;;16.27;7.65;;;13.10;99.90;;;;;;5033724;28;20021;-48
2024/04/08 04:38:24;;;;;;;15.05;6.70;;;13.10;99.90;;;;;;5033584;28;20021;-49
2024/04/08 04:41:05;;;;;;;15.07;7.40;;;13.20;99.90;;;;;;5033500;28;20489;-47
2024/04/08 04:43:31;;;;;;;14.00;7.78;;;13.20;99.90;;;;;;5033565;28;20037;-46
2024/04/08 04:45:57;;;;;;;13.00;7.18;;;13.20;99.90;;;;;;5033676;28;20402;-51
2024/04/08 04:48:23;;;;;;;14.55;6.93;;;13.20;99.90;;;;;;5033122;28;20029;-46
2024/04/08 04:50:49;;;;;;;14.95;7.25;;;13.20;99.90;;;;;;5032102;28;20033;-49
2024/04/08 04:53:15;;;;;;;13.68;7.25;;;13.30;99.90;;;;;;5033425;28;20095;-47
2024/04/08 04:55:40;;;;;;;13.68;6.03;;;13.30;99.90;;;;;;5033316;28;20030;-49
2024/04/08 04:58:06;;;;;;;16.52;7.18;;;13.30;99.90;;;;;;5033033;28;20044;-50
2024/04/08 05:00:34;;;;;;;13.52;7.15;;;13.40;99.90;;;;;;5032844;28;20030;-47
2024/04/08 05:03:00;;;;;;;12.23;6.80;;;13.30;99.90;;;;;;5033098;28;20033;-47
2024/04/08 05:05:26;;;;;;;15.48;7.13;;;13.40;99.90;;;;;;5033123;28;20071;-50
2024/04/08 05:07:51;;;;;;;15.07;7.20;;;13.40;99.90;;;;;;5032882;28;20057;-49
2024/04/08 05:10:17;;;;;;;16.13;7.00;;;13.30;99.90;;;;;;5031757;28;20029;-48
2024/04/08 05:12:43;;;;;;;15.27;7.45;;;13.40;99.90;;;;;;5033014;28;20029;-48
2024/04/08 05:15:09;;;;;;;16.67;8.43;;;13.40;99.90;;;;;;5032645;28;20026;-49
2024/04/08 05:17:34;;;;;;;11.10;6.90;;;13.40;99.90;;;;;;5032586;28;20451;-48
2024/04/08 05:20:03;;;;;;;13.20;7.28;;;13.40;99.90;;;;;;5032717;28;20036;-49
2024/04/08 05:22:29;;;;;;;13.50;6.93;;;13.40;99.90;;;;;;5032749;28;20542;-50
2024/04/08 05:24:55;;;;;;;13.82;6.93;;;13.40;99.90;;;;;;5032757;28;20112;-47
2024/04/08 05:27:21;;;;;;;13.50;6.90;;;13.40;99.90;;;;;;5032552;28;20031;-50
2024/04/08 05:29:46;;;;;;;12.77;6.88;;;13.40;99.90;;;;;;5032648;28;20379;-47
2024/04/08 05:32:12;;;;;;;15.85;7.30;;;13.40;99.90;;;;;;5032527;28;20064;-49
2024/04/08 05:34:39;;;;;;;12.77;7.50;;;13.40;99.90;;;;;;5032858;28;20025;-49
2024/04/08 05:37:04;;;;;;;15.85;6.50;;;13.50;99.90;;;;;;5032340;28;20479;-50
2024/04/08 05:39:30;;;;;;;14.45;6.32;;;13.50;99.90;;;;;;5032666;28;20044;-50
2024/04/08 05:41:56;;;;;;;13.93;6.35;;;13.50;99.90;;;;;;5032412;28;20033;-50
2024/04/08 05:44:21;;;;;;;14.48;6.75;;;13.50;99.90;;;;;;5032467;28;20032;-49
2024/04/08 05:46:47;;;;;;;10.35;5.95;;;13.60;99.90;;;;;;5031999;28;20032;-50
2024/04/08 05:49:13;;;;;;;13.32;5.70;;;13.60;99.90;;;;;;5032459;28;20544;-49
2024/04/08 05:51:38;;;;;;;12.93;6.22;;;13.70;99.90;;;;;;5032286;28;20116;-46
2024/04/08 05:55:28;;;;;;;12.52;5.68;;;13.80;99.90;;;;;;5434271;26;20504;-50
2024/04/08 05:57:54;;;;;;;9.55;5.20;;;14.00;99.90;;;;;;5434202;26;20040;-51
2024/04/08 06:00:20;;;;;;;8.65;4.25;;;14.10;99.90;;;;;;5434035;26;20048;-49
2024/04/08 06:02:52;;;;;;;12.40;5.13;;;14.20;99.90;;;;;;5434353;26;20007;-48
2024/04/08 06:05:22;;;;;;;11.65;5.60;;;14.40;99.90;;;;;;5434106;26;20011;-49
2024/04/08 06:07:49;;;;;;;13.10;6.50;;;14.50;99.90;;;;;;5433873;26;20072;-51
2024/04/08 06:10:20;;;;;;;10.10;4.82;;;14.60;99.90;;;;;;5433923;26;20345;-51
2024/04/08 06:12:46;;;;;;;8.95;4.25;;;14.60;99.90;;;;;;5433958;26;19992;-49
2024/04/08 06:15:14;;;;;;;9.57;4.63;;;14.70;99.90;;;;;;5433990;26;19999;-50
2024/04/08 06:17:40;;;;;;;8.45;4.10;;;14.90;99.90;;;;;;5433643;26;20008;-51
2024/04/08 06:20:06;;;;;;;10.65;4.43;;;14.90;99.90;;;;;;5431818;26;20005;-48
2024/04/08 06:22:35;;;;;;;9.88;4.30;;;14.90;99.90;;;;;;5434125;26;20456;-47
2024/04/08 06:25:01;;;;;;;10.68;4.85;;;14.80;99.90;;;;;;5433739;26;20006;-47
2024/04/08 06:27:27;;;;;;;10.30;4.22;;;14.70;99.90;;;;;;5433321;26;19995;-49
2024/04/08 06:29:53;;;;;;;9.80;4.60;;;14.60;99.90;;;;;;5431532;26;20353;-51
2024/04/08 06:32:19;;;;;;;7.70;4.18;;;14.50;99.90;;;;;;5434033;26;20064;-51
2024/04/08 06:34:45;;;;;;;8.02;4.00;;;14.50;99.90;;;;;;5431651;26;19988;-51
2024/04/08 06:37:11;;;;;;;8.23;4.03;;;14.60;99.90;;;;;;5433276;26;20003;-48
2024/04/08 06:39:37;;;;;;;9.48;4.20;;;14.70;99.90;;;;;;5433807;26;20317;-50
2024/04/08 06:42:04;;;;;;;8.00;4.20;;;14.80;99.90;;;;;;5433710;26;20424;-49
2024/04/08 06:44:30;;;;;;;11.50;4.43;;;15.00;99.90;;;;;;5433554;26;20130;-52
2024/04/08 06:46:56;;;;;;;9.75;4.13;;;15.30;99.90;;;;;;5433232;26;20414;-50
2024/04/08 06:49:22;;;;;;;10.00;4.07;;;15.50;99.90;;;;;;5433713;26;20128;-51
2024/04/08 06:51:49;;;;;;;12.00;4.07;;;15.70;99.90;;;;;;5431912;26;20407;-50
2024/04/08 06:54:15;;;;;;;8.82;3.63;;;15.90;99.90;;;;;;5433539;26;20452;-51
2024/04/08 06:56:41;;;;;;;7.40;3.50;;;16.20;99.90;;;;;;5433128;26;19999;-48
2024/04/08 06:59:07;;;;;;;9.13;3.70;;;16.30;99.90;;;;;;5433408;26;20068;-49
2024/04/08 07:01:33;;;;;;;6.28;3.00;;;16.30;99.90;;;;;;5433140;26;19991;-49
2024/04/08 07:03:59;;;;;;;7.40;3.25;;;16.30;99.90;;;;;;5433110;26;20041;-50
2024/04/08 07:06:25;;;;;;;6.13;2.55;;;16.30;99.90;;;;;;5418228;26;19992;-51
2024/04/08 07:08:51;;;;;;;5.93;2.60;;;16.40;99.90;;;;;;5417748;26;20068;-50
2024/04/08 07:11:17;;;;;;;6.03;2.30;;;16.50;99.90;;;;;;5417925;26;19995;-50
2024/04/08 07:13:43;;;;;;;6.13;2.45;;;16.60;99.90;;;;;;5417810;26;19992;-50
2024/04/08 07:16:09;;;;;;;8.43;2.70;;;16.70;99.90;;;;;;5418093;26;20007;-48
2024/04/08 07:18:36;;;;;;;6.97;2.97;;;16.80;99.90;;;;;;5417252;26;20007;-48
2024/04/08 07:21:05;;;;;;;7.72;2.83;;;16.90;99.90;;;;;;5417579;26;20006;-49
2024/04/08 07:23:31;;;;;;;5.78;2.40;;;17.00;99.90;;;;;;5417541;26;20000;-49
2024/04/08 07:25:57;;;;;;;6.20;3.10;;;17.20;99.90;;;;;;5417301;26;19995;-51
2024/04/08 07:28:23;;;;;;;7.57;2.85;;;17.30;99.90;;;;;;5417142;26;20452;-51
2024/04/08 07:30:49;;;;;;;5.50;2.30;;;17.20;99.90;;;;;;5415591;26;20010;-51
2024/04/08 07:33:15;;;;;;;7.68;2.75;;;17.30;99.90;;;;;;5417182;26;19996;-48
2024/04/08 07:35:41;;;;;;;7.07;2.40;;;17.20;99.90;;;;;;5417426;26;20064;-51
2024/04/08 07:38:07;;;;;;;6.10;2.70;;;17.30;99.90;;;;;;5417083;26;20000;-51
2024/04/08 07:40:33;;;;;;;5.72;2.53;;;17.40;99.90;;;;;;5417375;26;20028;-50
2024/04/08 07:42:59;;;;;;;6.93;2.65;;;17.50;99.90;;;;;;5417459;26;20080;-51
2024/04/08 07:45:25;;;;;;;4.30;2.25;;;17.60;99.90;;;;;;5417286;26;20007;-49
2024/04/08 07:47:51;;;;;;;8.10;2.50;;;17.70;99.90;;;;;;5417066;26;19992;-52
2024/04/08 07:50:18;;;;;;;7.80;3.72;;;17.60;99.90;;;;;;5417445;26;20501;-52
2024/04/08 07:52:44;;;;;;;5.45;2.15;;;17.80;99.90;;;;;;5417248;26;20019;-52
2024/04/08 07:55:10;;;;;;;8.38;2.45;;;17.80;99.90;;;;;;5416687;26;19996;-51
2024/04/08 07:57:36;;;;;;;5.18;2.45;;;18.00;99.90;;;;;;5416901;26;20023;-51
2024/04/08 08:00:03;;;;;;;4.82;2.17;;;18.00;99.90;;;;;;5416932;26;20064;-47
2024/04/08 08:02:36;;;;;;;6.45;1.98;;;18.20;99.90;;;;;;5417057;26;20038;-49
2024/04/08 08:05:02;;;;;;;5.35;2.30;;;18.20;99.90;;;;;;5417253;26;20336;-52
2024/04/08 08:07:30;;;;;;;6.05;2.13;;;18.40;99.90;;;;;;5416818;26;19995;-51
2024/04/08 08:09:56;;;;;;;5.50;2.50;;;18.70;99.90;;;;;;5416907;26;20522;-51
2024/04/08 08:12:22;;;;;;;5.72;2.35;;;18.80;99.90;;;;;;5417157;26;20302;-48
2024/04/08 08:14:48;;;;;;;5.10;2.08;;;19.00;99.90;;;;;;5416661;26;20448;-49
2024/04/08 08:17:14;;;;;;;5.60;2.00;;;19.00;99.90;;;;;;5416646;26;20064;-51
2024/04/08 08:19:40;;;;;;;5.10;2.10;;;18.90;99.90;;;;;;5416924;26;20329;-47
2024/04/08 08:22:06;;;;;;;7.82;2.42;;;18.70;99.90;;;;;;5416912;26;20406;-51
2024/04/08 08:24:33;;;;;;;6.50;2.78;;;18.70;99.90;;;;;;5416901;26;20023;-51
2024/04/08 08:26:59;;;;;;;7.28;2.53;;;18.70;99.90;;;;;;5414709;26;20002;-51
2024/04/08 08:29:26;;;;;;;7.38;2.42;;;18.90;99.90;;;;;;5416551;26;20064;-48
2024/04/08 08:31:52;;;;;;;4.90;2.33;;;19.00;99.90;;;;;;5416808;26;20006;-51
2024/04/08 08:34:18;;;;;;;5.28;2.30;;;19.10;99.90;;;;;;5416824;26;20333;-50
2024/04/08 08:36:46;;;;;;;5.80;2.60;;;19.30;99.90;;;;;;5416376;26;19996;-51
2024/04/08 08:39:12;;;;;;;6.87;2.37;;;19.20;99.90;;;;;;5416810;26;19991;-47
2024/04/08 08:41:42;;;;;;;5.30;2.35;;;19.00;99.90;;;;;;5416764;26;20064;-51
2024/04/08 08:44:10;;;;;;;4.50;2.22;;;19.00;99.90;;;;;;5416483;26;20407;-50
2024/04/08 08:46:36;;;;;;;4.45;2.33;;;19.10;99.90;;;;;;5415690;26;20007;-47
2024/04/08 08:49:05;;;;;;;9.10;3.83;;;19.10;99.90;;;;;;5415907;26;19991;-48
2024/04/08 08:51:32;;;;;;;6.97;2.35;;;19.30;99.90;;;;;;5416260;26;20023;-51
2024/04/08 08:53:58;;;;;;;5.32;2.22;;;19.40;99.90;;;;;;5416378;26;19991;-51
2024/04/08 08:56:28;;;;;;;6.90;2.20;;;19.50;99.90;;;;;;5414118;26;20042;-51
2024/04/08 08:58:57;;;;;;;6.10;2.13;;;19.70;99.90;;;;;;5416035;26;20000;-47
2024/04/08 09:01:24;;;;;;;6.53;2.33;;;19.60;99.90;;;;;;5416200;26;20001;-51
2024/04/08 09:03:53;;;;;;;6.82;2.53;;;19.80;99.90;;;;;;5416207;26;20076;-50
2024/04/08 09:06:20;;;;;;;5.03;2.40;;;20.00;99.90;;;;;;5415899;26;20399;-50
2024/04/08 09:08:46;;;;;;;7.57;2.83;;;20.20;99.90;;;;;;5414505;26;20030;-51
2024/04/08 09:11:12;;;;;;;5.15;2.13;;;20.30;99.90;;;;;;5416213;26;19991;-50
2024/04/08 09:13:38;;;;;;;7.07;2.47;;;20.40;99.90;;;;;;5415969;26;20128;-48
2024/04/08 09:16:04;;;;;;;6.47;2.55;;;20.50;99.90;;;;;;5416263;26;20471;-51
2024/04/08 09:18:30;;;;;;;7.05;2.60;;;20.60;99.90;;;;;;5414015;26;20068;-46
2024/04/08 09:20:58;;;;;;;5.05;2.50;;;20.70;99.90;;;;;;5416023;26;20068;-51
2024/04/08 09:23:25;;;;;;;6.87;2.63;;;20.60;99.90;;;;;;5416005;26;20027;-48
2024/04/08 09:25:51;;;;;;;5.88;3.00;;;20.70;99.90;;;;;;5415859;26;20338;-50
2024/04/08 09:28:17;;;;;;;5.97;2.55;;;20.70;99.90;;;;;;5413140;26;19991;-49
2024/04/08 09:30:44;;;;;;;5.30;2.83;;;20.80;99.90;;;;;;5416088;26;20538;-46
2024/04/08 09:33:12;;;;;;;6.35;2.50;;;20.80;99.90;;;;;;5415801;26;20424;-46
2024/04/08 09:35:41;;;;;;;8.02;3.17;;;20.90;99.90;;;;;;5416330;26;20398;-46
2024/04/08 09:38:08;;;;;;;;;;;21.20;99.90;;;;;;5416131;26;19991;-47
2024/04/08 09:40:37;;;;;;;8.35;3.00;;;21.10;99.90;;;;;;5415636;26;19924;-46
2024/04/08 09:43:03;;;;;;;6.78;3.13;;;21.20;99.90;;;;;;5415667;26;20003;-52
2024/04/08 09:45:31;;;;;;;6.15;2.42;;;21.30;99.90;;;;;;5415803;26;19991;-48
2024/04/08 09:47:58;;;;;;;8.90;3.63;;;21.50;99.90;;;;;;5415286;26;19995;-51
2024/04/08 09:50:27;;;;;;;7.13;2.80;;;21.80;99.90;;;;;;5415450;26;20407;-50
2024/04/08 09:52:54;;;;;;;7.68;3.45;;;22.00;99.90;;;;;;5415674;26;19992;-49
2024/04/08 09:55:27;;;;;;;6.57;3.30;;;22.20;99.90;;;;;;5415132;26;20026;-51
2024/04/08 09:57:57;;;;;;;8.30;2.83;;;22.20;99.90;;;;;;5414974;26;20068;-51
2024/04/08 10:00:26;;;;;;;8.48;3.22;;;22.30;99.90;;;;;;5415087;26;20055;-51
2024/04/08 10:02:55;;;;;;;7.40;3.60;;;22.50;99.90;;;;;;5413441;26;20068;-50
2024/04/08 10:05:22;;;;;;;7.25;3.72;;;22.60;99.90;;;;;;5415128;26;20004;-52
2024/04/08 10:07:49;;;;;;;5.20;3.00;;;22.90;99.90;;;;;;5414905;26;20029;-52
2024/04/08 10:10:16;;;;;;;7.50;3.08;;;23.30;99.90;;;;;;5415488;26;20007;-49
2024/04/08 10:12:42;;;;;;;8.38;3.20;;;23.60;99.90;;;;;;5415106;26;19992;-52
2024/04/08 10:15:12;;;;;;;7.03;3.13;;;23.80;99.90;;;;;;5413261;26;19996;-51
2024/04/08 10:17:42;;;;;;;7.00;3.63;;;23.70;99.90;;;;;;5414643;26;20078;-52
2024/04/08 10:20:10;;;;;;;5.82;2.97;;;23.70;99.90;;;;;;5415154;26;20007;-52
2024/04/08 10:22:38;;;;;;;8.90;3.25;;;23.20;99.90;;;;;;5414652;26;20105;-52
2024/04/08 10:25:04;;;;;;;7.05;3.45;;;22.90;99.90;;;;;;5415038;26;20339;-52
2024/04/08 10:27:34;;;;;;;7.18;3.10;;;23.10;99.90;;;;;;5413978;26;20067;-51
2024/04/08 10:30:00;;;;;;;7.90;4.10;;;23.30;99.90;;;;;;5413925;26;19992;-50
2024/04/08 10:32:26;;;;;;;8.80;3.15;;;24.10;99.90;;;;;;5414664;26;20407;-51
2024/04/08 10:34:57;;;;;;;8.80;3.83;;;24.30;99.90;;;;;;5414500;26;20065;-50
2024/04/08 10:37:23;;;;;;;5.80;3.80;;;24.50;99.90;;;;;;5414370;26;20072;-51
2024/04/08 10:39:59;;;;;;;7.32;3.40;;;24.80;99.50;;;;;;5414615;26;20344;-50
2024/04/08 10:42:27;;;;;;;7.55;3.38;;;25.30;99.90;;;;;;5416606;26;20042;-51
2024/04/08 10:44:55;;;;;;;10.98;3.75;;;25.80;99.30;;;;;;5416475;26;20402;-51
2024/04/08 10:47:21;;;;;;;6.68;3.42;;;26.10;98.20;;;;;;5417947;26;20410;-52
2024/04/08 10:49:47;;;;;;;7.97;3.83;;;26.60;96.90;;;;;;5418030;26;19995;-51
2024/04/08 10:52:15;;;;;;;7.65;3.45;;;26.70;95.40;;;;;;5418529;26;20027;-50
2024/04/08 10:54:41;;;;;;;8.18;3.58;;;26.20;95.80;;;;;;5417977;26;20352;-51
2024/04/08 10:57:07;;;;;;;6.40;3.90;;;25.70;96.10;;;;;;5417871;26;20000;-49
2024/04/08 10:59:33;;;;;;;6.57;3.53;;;25.50;96.90;;;;;;5418030;26;20525;-50
2024/04/08 11:01:59;;;;;;;9.82;3.38;;;25.20;97.20;;;;;;5417840;26;19999;-52
2024/04/08 11:04:25;;;;;;;9.93;3.78;;;25.10;98.20;;;;;;5418155;26;20073;-50
2024/04/08 11:06:51;;;;;;;7.22;3.45;;;25.30;97.30;;;;;;5417511;26;20011;-50
2024/04/08 11:09:17;;;;;;;5.68;2.90;;;25.30;97.80;;;;;;5417881;26;20452;-51
2024/04/08 11:11:43;;;;;;;8.55;3.67;;;24.80;97.60;;;;;;5417893;26;20049;-50
2024/04/08 11:14:09;;;;;;;8.10;3.80;;;24.60;97.80;;;;;;5418062;26;20358;-51
2024/04/08 11:16:35;;;;;;;9.52;3.13;;;24.20;98.40;;;;;;5417796;26;19991;-51
2024/04/08 11:19:02;;;;;;;8.05;2.88;;;23.40;98.00;;;;;;5417595;26;19992;-51
2024/04/08 11:21:28;;;;;;;9.95;4.32;;;23.20;97.30;;;;;;5417637;26;20006;-51
2024/04/08 11:23:54;;;;;;;9.07;4.10;;;23.10;98.20;;;;;;5417775;26;20003;-49
2024/04/08 11:26:22;;;;;;;9.15;2.88;;;23.30;98.10;;;;;;5417312;26;20068;-51
2024/04/08 11:28:48;;;;;;;6.93;2.88;;;23.20;98.20;;;;;;5415822;26;19995;-49
2024/04/08 11:31:14;;;;;;;5.40;2.88;;;23.30;97.90;;;;;;5417678;26;20069;-51
2024/04/08 11:33:40;;;;;;;6.50;2.80;;;23.40;98.60;;;;;;5417634;26;20007;-49
2024/04/08 11:36:08;;;;;;;6.95;2.70;;;23.50;98.20;;;;;;5417595;26;20440;-48
2024/04/08 11:38:34;;;;;;;7.57;2.83;;;23.60;98.50;;;;;;5417207;26;20028;-49
2024/04/08 11:41:00;;;;;;;10.63;3.63;;;23.70;98.50;;;;;;5417072;26;20003;-51
2024/04/08 11:43:26;;;;;;;6.82;2.72;;;23.50;97.40;;;;;;5417411;26;19995;-51
2024/04/08 11:45:52;;;;;;;11.93;3.47;;;23.30;97.90;;;;;;5417396;26;20083;-48
2024/04/08 11:48:19;;;;;;;7.03;2.95;;;23.00;98.00;;;;;;5416499;26;20038;-49
2024/04/08 11:50:45;;;;;;;9.85;3.28;;;22.70;99.00;;;;;;5417261;26;19999;-51
2024/04/08 11:53:11;;;;;;;12.18;3.42;;;22.50;99.80;;;;;;5417127;26;20068;-51
2024/04/08 11:55:39;;;;;;;7.88;2.95;;;22.50;99.90;;;;;;5417016;26;19996;-50
2024/04/08 11:58:07;;;;;;;8.45;3.97;;;22.50;99.80;;;;;;5417124;26;20007;-51
2024/04/08 12:00:33;;;;;;;9.95;3.15;;;22.60;99.90;;;;;;5417417;26;20134;-46
2024/04/08 12:02:59;;;;;;;8.32;3.17;;;22.70;99.90;;;;;;5417083;26;19995;-49
2024/04/08 12:05:25;;;;;;;6.90;3.03;;;22.80;99.80;;;;;;5417287;26;19995;-51
2024/04/08 12:07:51;;;;;;;8.18;3.30;;;23.10;99.10;;;;;;5416580;26;20341;-50
2024/04/08 12:10:17;;;;;;;7.90;3.50;;;23.30;99.50;;;;;;5416458;26;20034;-52
2024/04/08 12:12:43;;;;;;;7.47;3.53;;;23.40;99.50;;;;;;5417266;26;19995;-50
2024/04/08 12:15:09;;;;;;;10.15;3.67;;;23.40;98.70;;;;;;5415295;26;20444;-49
2024/04/08 12:17:35;;;;;;;12.02;3.83;;;23.50;98.80;;;;;;5416584;26;19995;-51
2024/04/08 12:20:02;;;;;;;7.88;3.30;;;23.40;99.40;;;;;;5416809;26;19995;-51
2024/04/08 12:22:28;;;;;;;11.23;4.00;;;23.00;99.90;;;;;;5416783;26;20068;-50
2024/04/08 12:24:54;;;;;;;9.82;4.18;;;22.90;99.80;;;;;;5416573;26;20007;-47
2024/04/08 12:27:22;;;;;;;8.80;4.00;;;22.70;99.90;;;;;;5416723;26;20003;-46
2024/04/08 12:29:49;;;;;;;13.90;4.05;;;22.70;99.90;;;;;;5416609;26;20011;-49
2024/04/08 12:32:15;;;;;;;12.38;4.30;;;22.50;99.90;;;;;;5416411;26;19996;-50
2024/04/08 12:34:41;;;;;;;11.50;4.22;;;22.40;99.90;;;;;;5416467;26;19995;-49
2024/04/08 12:37:08;;;;;;;11.32;4.38;;;22.20;99.90;;;;;;5416336;26;20064;-51
2024/04/08 12:39:34;;;;;;;9.90;4.25;;;22.10;99.90;;;;;;5416600;26;20003;-51
2024/04/08 12:42:00;;;;;;;9.35;4.82;;;21.90;99.90;;;;;;5416506;26;20006;-52